Time;durP1;ratioP1;P1;durP2;ratioP2;P2;SDS_P1;SDS_P2;PMS_P1;PMS_P2;Temp;Humidity;BMP_temperature;BMP_pressure;BME280_temperature;BME280_humidity;BME280_pressure;Samples;Min_cycle;Max_cycle;Signal;HPM_P1;HPM_P2
2023/01/10 00:01:37;;;;;;;16.08;6.88;;;6.50;99.90;;;;;;5019448;28;20033;-57
2023/01/10 00:04:03;;;;;;;16.40;6.60;;;6.60;99.90;;;;;;5023260;28;20045;-57
2023/01/10 00:06:28;;;;;;;15.07;6.00;;;6.60;99.90;;;;;;5024675;28;20664;-57
2023/01/10 00:08:56;;;;;;;14.35;5.10;;;6.60;99.90;;;;;;5005853;28;20477;-57
2023/01/10 00:14:06;;;;;;;14.10;5.43;;;6.60;99.90;;;;;;5020085;28;20040;-57
2023/01/10 00:16:31;;;;;;;13.70;5.28;;;6.70;99.90;;;;;;5021726;28;20037;-57
2023/01/10 00:18:57;;;;;;;16.08;5.43;;;6.70;99.90;;;;;;5019734;28;20124;-56
2023/01/10 00:21:22;;;;;;;16.05;5.45;;;6.70;99.90;;;;;;5017557;28;20026;-56
2023/01/10 00:23:48;;;;;;;14.32;4.80;;;6.70;99.90;;;;;;5031483;28;20028;-55
2023/01/10 00:26:13;;;;;;;17.02;5.65;;;6.80;99.90;;;;;;5042762;28;20061;-56
2023/01/10 00:28:39;;;;;;;17.55;5.07;;;6.90;99.90;;;;;;5044333;28;20118;-56
2023/01/10 00:31:05;;;;;;;11.13;4.60;;;6.90;99.90;;;;;;5041912;28;20033;-56
2023/01/10 00:33:32;;;;;;;13.52;4.78;;;6.90;99.90;;;;;;5043536;28;20397;-56
2023/01/10 00:36:03;;;;;;;16.38;4.97;;;6.90;99.90;;;;;;5043981;28;20404;-57
2023/01/10 00:38:30;;;;;;;14.55;4.55;;;7.00;99.90;;;;;;5043331;28;20392;-56
2023/01/10 00:40:56;;;;;;;21.45;5.68;;;7.00;99.90;;;;;;5041523;28;20563;-57
2023/01/10 00:46:07;;;;;;;18.55;5.50;;;7.00;99.90;;;;;;5042054;28;20163;-56
2023/01/10 00:48:33;;;;;;;14.43;5.40;;;7.10;99.90;;;;;;5044555;28;20029;-56
2023/01/10 00:50:58;;;;;;;14.48;5.03;;;7.00;99.90;;;;;;5043149;28;20488;-56
2023/01/10 00:53:24;;;;;;;16.40;5.72;;;7.00;99.90;;;;;;5043760;28;20135;-56
2023/01/10 00:55:49;;;;;;;16.58;4.88;;;7.10;99.90;;;;;;5048015;28;20098;-56
2023/01/10 00:58:16;;;;;;;16.13;4.43;;;6.90;99.90;;;;;;5047681;28;20116;-56
2023/01/10 01:00:45;;;;;;;20.85;4.93;;;7.00;99.90;;;;;;5046808;28;20037;-57
2023/01/10 01:03:12;;;;;;;15.68;4.38;;;7.00;99.90;;;;;;5046950;28;20497;-57
2023/01/10 01:05:42;;;;;;;14.35;4.72;;;7.00;99.90;;;;;;5047614;28;20068;-57
2023/01/10 01:08:09;;;;;;;16.83;3.92;;;7.10;99.90;;;;;;5045384;28;20132;-56
2023/01/10 01:10:34;;;;;;;18.95;4.50;;;7.20;99.90;;;;;;5045161;28;20095;-57
2023/01/10 01:13:13;;;;;;;20.17;5.47;;;7.10;99.90;;;;;;5046867;28;20076;-57
2023/01/10 01:15:39;;;;;;;14.90;4.50;;;7.10;99.90;;;;;;5047193;28;20094;-56
2023/01/10 01:18:05;;;;;;;16.75;4.95;;;7.10;99.90;;;;;;5046038;28;20029;-56
2023/01/10 01:20:31;;;;;;;17.60;4.70;;;7.10;99.90;;;;;;5047199;28;20029;-56
2023/01/10 01:22:57;;;;;;;20.27;4.93;;;7.10;99.90;;;;;;5046577;28;20037;-56
2023/01/10 01:25:23;;;;;;;13.20;4.03;;;7.20;99.90;;;;;;5045941;28;20047;-57
2023/01/10 01:27:48;;;;;;;15.75;4.35;;;7.20;99.90;;;;;;5045352;28;20400;-56
2023/01/10 01:30:14;;;;;;;14.88;4.20;;;7.20;99.90;;;;;;5045144;28;20412;-57
2023/01/10 01:32:40;;;;;;;20.23;4.53;;;7.10;99.90;;;;;;5041981;28;20036;-57
2023/01/10 01:35:08;;;;;;;18.33;4.18;;;7.10;99.90;;;;;;5045434;28;20036;-57
2023/01/10 01:37:33;;;;;;;16.13;4.00;;;7.10;99.90;;;;;;5046667;28;20104;-57
2023/01/10 01:39:59;;;;;;;15.65;3.65;;;7.10;99.90;;;;;;5027088;28;20052;-56
2023/01/10 01:42:30;;;;;;;11.05;3.22;;;7.20;99.90;;;;;;5046179;28;20037;-56
2023/01/10 01:45:08;;;;;;;13.80;3.22;;;7.10;99.90;;;;;;5045905;28;20116;-56
2023/01/10 01:47:57;;;;;;;13.07;3.40;;;7.10;99.90;;;;;;5044113;28;20072;-56
2023/01/10 01:50:33;;;;;;;15.85;3.03;;;7.10;99.90;;;;;;5044203;28;20037;-57
2023/01/10 01:53:02;;;;;;;14.55;3.80;;;7.00;99.90;;;;;;5046914;28;20037;-56
2023/01/10 01:55:32;;;;;;;11.35;3.53;;;6.90;99.90;;;;;;5020619;28;20496;-57
2023/01/10 01:57:59;;;;;;;13.77;3.13;;;6.80;99.90;;;;;;5046227;28;20036;-56
2023/01/10 02:00:25;;;;;;;15.57;3.20;;;6.70;99.90;;;;;;5023013;28;20044;-56
2023/01/10 02:02:55;;;;;;;15.38;3.35;;;6.80;99.90;;;;;;5045507;28;20053;-56
2023/01/10 02:05:22;;;;;;;16.60;3.45;;;6.90;99.90;;;;;;5043952;28;20033;-57
2023/01/10 02:07:53;;;;;;;14.18;3.10;;;7.00;99.90;;;;;;5046535;28;20124;-57
2023/01/10 02:10:45;;;;;;;14.27;3.67;;;6.90;99.90;;;;;;5044544;28;20091;-57
2023/01/10 02:13:13;;;;;;;13.25;3.15;;;6.80;99.90;;;;;;5044097;28;20049;-57
2023/01/10 02:15:39;;;;;;;12.65;3.55;;;6.50;99.90;;;;;;5046451;28;20120;-57
2023/01/10 02:18:05;;;;;;;11.55;3.40;;;6.40;99.90;;;;;;5046302;28;20186;-57
2023/01/10 02:20:57;;;;;;;14.38;2.92;;;6.40;99.90;;;;;;5044957;28;20041;-57
2023/01/10 02:23:51;;;;;;;14.48;3.00;;;6.30;99.90;;;;;;4994750;28;20044;-57
2023/01/10 02:26:38;;;;;;;12.85;3.20;;;6.40;99.90;;;;;;5042224;28;20061;-57
2023/01/10 02:29:16;;;;;;;15.32;3.08;;;6.40;99.90;;;;;;5045294;28;20075;-57
2023/01/10 02:32:18;;;;;;;10.50;3.25;;;6.20;99.90;;;;;;5042868;28;20047;-56
2023/01/10 02:34:50;;;;;;;13.32;2.95;;;6.20;99.90;;;;;;5042803;28;20102;-56
2023/01/10 02:37:24;;;;;;;11.95;3.22;;;6.20;99.90;;;;;;5044278;28;20040;-58
2023/01/10 02:39:53;;;;;;;13.63;3.58;;;6.10;99.90;;;;;;5045462;28;20040;-57
2023/01/10 02:42:34;;;;;;;14.57;3.55;;;6.10;99.90;;;;;;5026568;28;20029;-56
2023/01/10 02:45:15;;;;;;;17.58;3.75;;;6.30;99.90;;;;;;5045174;28;20036;-57
2023/01/10 02:47:41;;;;;;;15.48;3.05;;;6.40;99.90;;;;;;5048557;28;20060;-56
2023/01/10 02:50:29;;;;;;;14.13;3.47;;;6.60;99.90;;;;;;5023422;28;20099;-57
2023/01/10 02:52:58;;;;;;;17.77;3.35;;;6.20;99.90;;;;;;5044189;28;20587;-57
2023/01/10 02:55:38;;;;;;;16.75;4.00;;;6.10;99.90;;;;;;5044972;28;20044;-57
2023/01/10 02:58:18;;;;;;;17.75;4.40;;;6.30;99.90;;;;;;5044586;28;20633;-57
2023/01/10 03:01:20;;;;;;;11.25;3.20;;;6.40;99.90;;;;;;5042310;28;20029;-56
2023/01/10 03:04:00;;;;;;;21.27;4.20;;;6.40;99.90;;;;;;5042915;28;20048;-56
2023/01/10 03:06:30;;;;;;;19.73;3.78;;;6.40;99.90;;;;;;5041315;28;20068;-56
2023/01/10 03:09:04;;;;;;;14.70;3.90;;;6.40;99.90;;;;;;5045861;28;20033;-56
2023/01/10 03:11:40;;;;;;;18.20;3.72;;;6.30;99.90;;;;;;5021442;28;20396;-56
2023/01/10 03:14:25;;;;;;;15.77;3.67;;;6.40;99.90;;;;;;5040126;28;20246;-57
2023/01/10 03:16:58;;;;;;;14.73;3.55;;;6.30;99.90;;;;;;5043014;28;20072;-57
2023/01/10 03:19:30;;;;;;;18.45;3.80;;;6.30;99.90;;;;;;5043839;28;20025;-56
2023/01/10 03:21:59;;;;;;;14.68;3.45;;;6.20;99.90;;;;;;5044886;28;20037;-56
2023/01/10 03:24:35;;;;;;;17.08;4.10;;;6.40;99.90;;;;;;5045110;28;20646;-57
2023/01/10 03:27:08;;;;;;;20.75;4.13;;;6.30;99.90;;;;;;5042652;28;20041;-56
2023/01/10 03:29:45;;;;;;;12.48;3.85;;;6.30;99.90;;;;;;5042653;28;20022;-57
2023/01/10 03:32:14;;;;;;;19.30;3.58;;;6.30;99.90;;;;;;5025803;28;20179;-57
2023/01/10 03:34:40;;;;;;;19.60;3.65;;;6.20;99.90;;;;;;5044948;28;20033;-58
2023/01/10 03:37:44;;;;;;;18.98;4.15;;;6.40;99.90;;;;;;5044108;28;20037;-57
2023/01/10 03:40:25;;;;;;;19.10;4.03;;;6.40;99.90;;;;;;5042895;28;20053;-58
2023/01/10 03:46:09;;;;;;;19.10;3.92;;;6.00;99.90;;;;;;5042082;28;20048;-57
2023/01/10 03:48:40;;;;;;;17.13;3.58;;;6.10;99.90;;;;;;5036803;28;20055;-57
2023/01/10 03:51:06;;;;;;;13.30;3.42;;;6.20;99.90;;;;;;5041930;28;20492;-56
2023/01/10 03:53:35;;;;;;;14.80;3.28;;;6.40;99.90;;;;;;5045180;28;20484;-57
2023/01/10 03:56:01;;;;;;;12.88;3.20;;;6.50;99.90;;;;;;5043533;28;20436;-57
2023/01/10 03:58:29;;;;;;;14.98;3.40;;;6.50;99.90;;;;;;5043998;28;20028;-57
2023/01/10 04:00:55;;;;;;;16.58;3.22;;;6.50;99.90;;;;;;5043548;28;20041;-57
2023/01/10 04:03:21;;;;;;;14.73;3.30;;;6.50;99.90;;;;;;5044654;28;20700;-57
2023/01/10 04:05:46;;;;;;;15.90;4.07;;;6.40;99.90;;;;;;5044010;28;20637;-57
2023/01/10 04:08:12;;;;;;;15.60;3.97;;;6.40;99.90;;;;;;5043908;28;20061;-57
2023/01/10 04:10:37;;;;;;;13.50;3.10;;;6.40;99.90;;;;;;5023313;28;20495;-57
2023/01/10 04:13:04;;;;;;;17.50;4.10;;;6.40;99.90;;;;;;5042210;28;20060;-57
2023/01/10 04:15:30;;;;;;;14.82;3.85;;;6.40;99.90;;;;;;5045216;28;20055;-58
2023/01/10 04:17:55;;;;;;;15.40;3.20;;;6.40;99.90;;;;;;5045033;28;20033;-57
2023/01/10 04:20:25;;;;;;;17.98;3.40;;;6.40;99.90;;;;;;5043165;28;20036;-57
2023/01/10 04:22:51;;;;;;;19.02;3.13;;;6.40;99.90;;;;;;5043178;28;20089;-57
2023/01/10 04:25:16;;;;;;;16.13;3.50;;;6.40;99.90;;;;;;5043196;28;20672;-57
2023/01/10 04:27:42;;;;;;;17.13;3.30;;;6.40;99.90;;;;;;5042952;28;20091;-57
2023/01/10 04:30:08;;;;;;;13.70;2.88;;;6.30;99.90;;;;;;5042312;28;20080;-57
2023/01/10 04:32:34;;;;;;;16.20;3.40;;;6.30;99.90;;;;;;5044460;28;20033;-56
2023/01/10 04:35:00;;;;;;;16.10;3.30;;;6.30;99.90;;;;;;5042341;28;20132;-57
2023/01/10 04:37:25;;;;;;;22.90;4.47;;;6.20;99.90;;;;;;5043791;28;20450;-57
2023/01/10 04:39:51;;;;;;;18.42;3.10;;;6.30;99.90;;;;;;5044276;28;20029;-57
2023/01/10 04:42:17;;;;;;;14.38;3.28;;;6.20;99.90;;;;;;5042280;28;20033;-57
2023/01/10 04:44:42;;;;;;;12.68;3.20;;;6.20;99.90;;;;;;5044790;28;20511;-56
2023/01/10 04:47:08;;;;;;;16.00;3.15;;;6.20;99.90;;;;;;5043734;28;20037;-57
2023/01/10 04:49:33;;;;;;;19.70;3.50;;;6.20;99.90;;;;;;5041562;28;20035;-57
2023/01/10 04:51:59;;;;;;;12.07;3.75;;;6.20;99.90;;;;;;5005508;28;20026;-56
2023/01/10 04:54:24;;;;;;;13.30;3.13;;;6.10;99.90;;;;;;5022677;28;20037;-57
2023/01/10 04:56:50;;;;;;;23.63;3.85;;;6.00;99.90;;;;;;5024146;28;20037;-57
2023/01/10 04:59:16;;;;;;;19.58;3.63;;;6.00;99.90;;;;;;5023037;28;20393;-56
2023/01/10 05:01:42;;;;;;;18.25;3.58;;;6.10;99.90;;;;;;5023542;28;20030;-57
2023/01/10 05:04:07;;;;;;;17.25;3.70;;;6.00;99.90;;;;;;5022204;28;20468;-57
2023/01/10 05:06:33;;;;;;;18.70;3.58;;;5.90;99.90;;;;;;5024127;28;20042;-57
2023/01/10 05:08:59;;;;;;;20.40;3.67;;;5.90;99.90;;;;;;5022015;28;20029;-57
2023/01/10 05:11:24;;;;;;;16.90;3.53;;;6.00;99.90;;;;;;5020118;28;20087;-57
2023/01/10 05:13:50;;;;;;;14.07;3.78;;;6.10;99.90;;;;;;5024291;28;20041;-56
2023/01/10 05:16:16;;;;;;;16.83;3.47;;;6.00;99.90;;;;;;5026228;28;20558;-57
2023/01/10 05:18:42;;;;;;;17.48;3.38;;;6.10;99.90;;;;;;5041780;28;20033;-57
2023/01/10 05:21:10;;;;;;;18.25;3.88;;;6.00;99.90;;;;;;5040784;28;20040;-57
2023/01/10 05:23:36;;;;;;;18.38;3.40;;;6.00;99.90;;;;;;5043973;28;20040;-56
2023/01/10 05:26:16;;;;;;;16.50;3.58;;;5.90;99.90;;;;;;5040706;28;20556;-57
2023/01/10 05:28:42;;;;;;;19.42;3.60;;;5.90;99.90;;;;;;5041113;28;20055;-57
2023/01/10 05:31:10;;;;;;;19.55;3.55;;;6.00;99.90;;;;;;5042139;28;20136;-57
2023/01/10 05:33:36;;;;;;;17.73;4.15;;;5.90;99.90;;;;;;5042984;28;20388;-57
2023/01/10 05:36:05;;;;;;;17.90;3.28;;;5.90;99.90;;;;;;5042904;28;20025;-57
2023/01/10 05:38:32;;;;;;;21.70;3.85;;;6.00;99.90;;;;;;5041255;28;20477;-56
2023/01/10 05:40:59;;;;;;;21.35;3.92;;;5.90;99.90;;;;;;5042405;28;20548;-57
2023/01/10 05:43:25;;;;;;;25.42;4.50;;;6.10;99.90;;;;;;5047088;28;20057;-57
2023/01/10 05:45:51;;;;;;;21.52;4.05;;;6.10;99.90;;;;;;5047467;28;20120;-57
2023/01/10 05:48:18;;;;;;;23.92;3.60;;;6.00;99.90;;;;;;5046509;28;20451;-57
2023/01/10 05:50:43;;;;;;;24.25;3.63;;;5.80;99.90;;;;;;5045938;28;20068;-57
2023/01/10 05:53:09;;;;;;;20.17;4.10;;;5.80;99.90;;;;;;5046187;28;20060;-57
2023/01/10 05:55:35;;;;;;;17.48;4.13;;;5.90;99.90;;;;;;5045379;28;20135;-57
2023/01/10 05:58:00;;;;;;;18.80;3.58;;;5.90;99.90;;;;;;5046345;28;20060;-57
2023/01/10 06:00:26;;;;;;;23.40;4.47;;;6.00;99.90;;;;;;5043173;28;20043;-56
2023/01/10 06:02:56;;;;;;;20.30;4.25;;;5.90;99.90;;;;;;5044508;28;20044;-57
2023/01/10 06:05:23;;;;;;;24.73;4.07;;;5.90;99.90;;;;;;5043839;28;20052;-57
2023/01/10 06:07:49;;;;;;;25.92;4.40;;;6.00;99.90;;;;;;5045137;28;20099;-57
2023/01/10 06:10:15;;;;;;;21.70;3.75;;;5.80;99.90;;;;;;5042500;28;20033;-57
2023/01/10 06:12:41;;;;;;;23.00;3.92;;;5.70;99.90;;;;;;5044045;28;20039;-56
2023/01/10 06:15:08;;;;;;;19.95;4.25;;;5.80;99.90;;;;;;5046233;28;20037;-57
2023/01/10 06:17:34;;;;;;;17.58;3.22;;;5.90;99.90;;;;;;5046270;28;20645;-57
2023/01/10 06:19:59;;;;;;;19.75;3.95;;;5.80;99.90;;;;;;5044509;28;20040;-56
2023/01/10 06:22:26;;;;;;;23.83;4.25;;;5.70;99.90;;;;;;5044791;28;20043;-56
2023/01/10 06:24:53;;;;;;;21.30;4.40;;;5.80;99.90;;;;;;5045029;28;20044;-57
2023/01/10 06:27:18;;;;;;;23.35;4.65;;;5.80;99.90;;;;;;5045250;28;20033;-56
2023/01/10 06:29:44;;;;;;;14.93;3.28;;;5.80;99.90;;;;;;5046247;28;20035;-57
2023/01/10 06:32:09;;;;;;;20.50;3.80;;;5.80;99.90;;;;;;5043886;28;20132;-56
2023/01/10 06:34:35;;;;;;;18.52;3.88;;;5.70;99.90;;;;;;5046862;28;20051;-55
2023/01/10 06:37:00;;;;;;;22.42;4.10;;;5.50;99.90;;;;;;5045524;28;20090;-57
2023/01/10 06:39:26;;;;;;;20.90;4.05;;;5.60;99.90;;;;;;5045227;28;20039;-57
2023/01/10 06:41:52;;;;;;;26.48;4.82;;;5.70;99.90;;;;;;5046773;28;20037;-58
2023/01/10 06:44:17;;;;;;;25.30;4.13;;;5.90;99.90;;;;;;5045560;28;20039;-57
2023/01/10 06:46:43;;;;;;;19.80;4.35;;;5.80;99.90;;;;;;5043041;28;20527;-58
2023/01/10 06:49:09;;;;;;;16.48;3.80;;;5.90;99.90;;;;;;5045734;28;20036;-58
2023/01/10 06:51:34;;;;;;;30.75;4.57;;;5.90;99.90;;;;;;5048309;28;20401;-56
2023/01/10 06:54:00;;;;;;;25.75;4.30;;;5.90;99.90;;;;;;5044976;28;20033;-57
2023/01/10 06:56:25;;;;;;;20.85;4.35;;;6.00;99.90;;;;;;5044008;28;20120;-57
2023/01/10 06:58:51;;;;;;;25.55;4.15;;;6.10;99.90;;;;;;5046027;28;20041;-56
2023/01/10 07:01:19;;;;;;;21.85;4.22;;;6.10;99.90;;;;;;5044984;28;20071;-57
2023/01/10 07:03:45;;;;;;;24.80;5.20;;;6.10;99.90;;;;;;5046014;28;20037;-57
2023/01/10 07:06:11;;;;;;;21.40;3.90;;;6.10;99.90;;;;;;5043601;28;20044;-57
2023/01/10 07:08:39;;;;;;;19.77;3.88;;;5.90;99.90;;;;;;5045911;28;20036;-56
2023/01/10 07:11:05;;;;;;;26.52;3.92;;;6.00;99.90;;;;;;5041259;28;20043;-57
2023/01/10 07:13:31;;;;;;;20.80;3.80;;;5.90;99.90;;;;;;5046033;28;20127;-56
2023/01/10 07:16:11;;;;;;;19.10;3.70;;;6.10;99.90;;;;;;5044796;28;20171;-57
2023/01/10 07:18:39;;;;;;;32.05;5.43;;;6.20;99.90;;;;;;5045849;28;20037;-56
2023/01/10 07:21:04;;;;;;;32.38;4.70;;;6.20;99.90;;;;;;5042946;28;20041;-59
2023/01/10 07:23:30;;;;;;;20.60;3.22;;;6.20;99.90;;;;;;5045860;28;20078;-59
2023/01/10 07:25:57;;;;;;;23.70;4.30;;;5.90;99.90;;;;;;5043841;28;20037;-58
2023/01/10 07:28:23;;;;;;;24.45;4.45;;;5.90;99.90;;;;;;5040115;28;20030;-59
2023/01/10 07:30:48;;;;;;;26.15;5.32;;;5.70;99.90;;;;;;5044344;28;20437;-58
2023/01/10 07:33:14;;;;;;;21.77;4.00;;;5.70;99.90;;;;;;5043679;28;20044;-59
2023/01/10 07:35:40;;;;;;;30.48;4.38;;;5.70;99.90;;;;;;5044046;28;20103;-57
2023/01/10 07:38:06;;;;;;;17.42;3.88;;;5.80;99.90;;;;;;5041586;28;20048;-58
2023/01/10 07:40:31;;;;;;;28.52;5.03;;;5.80;99.90;;;;;;5042171;28;20082;-59
2023/01/10 07:42:58;;;;;;;20.38;4.85;;;5.90;99.90;;;;;;5044260;28;20049;-57
2023/01/10 07:45:25;;;;;;;25.48;4.43;;;5.90;99.90;;;;;;5044327;28;20068;-58
2023/01/10 07:47:55;;;;;;;26.52;4.93;;;6.00;99.90;;;;;;5044015;28;20416;-59
2023/01/10 07:50:21;;;;;;;24.88;4.57;;;6.20;99.90;;;;;;5041602;28;20131;-58
2023/01/10 07:52:46;;;;;;;24.10;5.07;;;6.00;99.90;;;;;;5044523;28;20764;-59
2023/01/10 07:55:12;;;;;;;22.13;4.38;;;6.00;99.90;;;;;;5043085;28;20210;-58
2023/01/10 07:57:38;;;;;;;21.92;4.78;;;6.10;99.90;;;;;;5043272;28;20400;-58
2023/01/10 08:00:03;;;;;;;21.77;4.65;;;5.80;99.90;;;;;;5042445;28;20385;-57
2023/01/10 08:02:29;;;;;;;16.73;4.10;;;5.80;99.90;;;;;;5040752;28;20049;-59
2023/01/10 08:04:54;;;;;;;30.27;5.18;;;5.60;99.90;;;;;;5043584;28;20029;-58
2023/01/10 08:07:20;;;;;;;24.90;4.95;;;5.60;99.90;;;;;;5043451;28;20037;-59
2023/01/10 08:09:45;;;;;;;36.40;5.75;;;5.50;99.90;;;;;;5043944;28;20569;-57
2023/01/10 08:12:11;;;;;;;25.45;5.32;;;5.50;99.90;;;;;;5041499;28;20442;-59
2023/01/10 08:14:37;;;;;;;36.15;5.65;;;5.40;99.90;;;;;;5043997;28;20416;-58
2023/01/10 08:17:02;;;;;;;26.92;4.40;;;5.50;99.90;;;;;;5043420;28;20096;-57
2023/01/10 08:19:28;;;;;;;27.35;4.95;;;5.70;99.90;;;;;;5044000;28;20091;-58
2023/01/10 08:21:54;;;;;;;28.77;4.80;;;5.50;99.90;;;;;;5040584;28;20021;-58
2023/01/10 08:24:19;;;;;;;25.60;4.85;;;5.70;99.90;;;;;;5043587;28;20573;-58
2023/01/10 08:26:45;;;;;;;18.00;4.80;;;5.90;99.90;;;;;;5042563;28;20067;-59
2023/01/10 08:29:11;;;;;;;29.63;4.97;;;5.90;99.90;;;;;;5042437;28;20122;-58
2023/01/10 08:31:36;;;;;;;30.35;5.20;;;5.90;99.90;;;;;;5043849;28;20036;-58
2023/01/10 08:34:02;;;;;;;26.48;4.68;;;5.80;99.90;;;;;;5042511;28;20029;-59
2023/01/10 08:36:28;;;;;;;29.92;5.55;;;5.90;99.90;;;;;;5046227;28;20039;-58
2023/01/10 08:38:54;;;;;;;22.02;5.03;;;5.90;99.90;;;;;;5046165;28;20376;-58
2023/01/10 08:41:20;;;;;;;34.75;4.95;;;5.90;99.90;;;;;;5041803;28;20089;-58
2023/01/10 08:43:49;;;;;;;32.90;8.65;;;5.90;99.90;;;;;;5042983;28;20041;-58
2023/01/10 08:46:15;;;;;;;31.38;5.88;;;5.70;99.90;;;;;;5041251;28;20106;-59
2023/01/10 08:48:40;;;;;;;20.95;4.72;;;5.70;99.90;;;;;;5043872;28;20040;-57
2023/01/10 08:51:09;;;;;;;27.83;5.10;;;5.80;99.90;;;;;;5041986;28;20049;-59
2023/01/10 08:53:35;;;;;;;29.38;5.03;;;5.90;99.90;;;;;;5047580;28;20032;-59
2023/01/10 08:56:01;;;;;;;23.40;4.88;;;6.00;99.90;;;;;;5041821;28;20041;-58
2023/01/10 08:58:26;;;;;;;29.13;5.15;;;6.00;99.90;;;;;;5014386;28;20123;-58
2023/01/10 09:00:52;;;;;;;29.08;5.35;;;5.90;99.90;;;;;;5037712;28;20132;-58
2023/01/10 09:03:18;;;;;;;28.33;4.57;;;6.00;99.90;;;;;;5042837;28;20032;-58
2023/01/10 09:05:43;;;;;;;31.85;5.45;;;5.90;99.90;;;;;;5041739;28;20090;-58
2023/01/10 09:08:09;;;;;;;30.48;5.53;;;5.90;99.90;;;;;;5041834;28;20060;-57
2023/01/10 09:10:35;;;;;;;31.05;5.30;;;5.90;99.90;;;;;;5037263;28;20048;-58
2023/01/10 09:13:01;;;;;;;31.85;4.70;;;5.80;99.90;;;;;;5025468;28;20300;-58
2023/01/10 09:15:30;;;;;;;18.58;3.97;;;5.90;99.90;;;;;;5044495;28;20598;-57
2023/01/10 09:17:59;;;;;;;37.30;5.75;;;5.90;99.90;;;;;;5045537;28;20122;-58
2023/01/10 09:20:27;;;;;;;31.95;5.32;;;6.10;99.90;;;;;;5045355;28;20037;-58
2023/01/10 09:22:53;;;;;;;23.48;4.28;;;6.20;99.90;;;;;;5046053;28;20412;-58
2023/01/10 09:25:19;;;;;;;21.83;4.57;;;6.30;99.90;;;;;;5045731;28;20138;-59
2023/01/10 09:27:45;;;;;;;26.02;4.32;;;6.40;99.90;;;;;;5043933;28;20041;-59
2023/01/10 09:30:11;;;;;;;27.20;5.10;;;6.30;99.90;;;;;;5045253;28;20033;-58
2023/01/10 09:32:37;;;;;;;25.70;4.88;;;6.20;99.90;;;;;;5029416;28;20113;-58
2023/01/10 09:35:03;;;;;;;31.40;4.30;;;6.30;99.90;;;;;;5026879;28;20120;-59
2023/01/10 09:37:29;;;;;;;23.75;3.88;;;6.40;99.90;;;;;;5026200;28;20046;-58
2023/01/10 09:39:54;;;;;;;27.17;4.72;;;6.40;99.90;;;;;;5040264;28;20060;-58
2023/01/10 09:42:52;;;;;;;17.83;4.10;;;6.30;99.90;;;;;;5045298;28;20033;-59
2023/01/10 09:45:32;;;;;;;20.95;4.97;;;6.40;99.90;;;;;;5039828;28;20032;-59
2023/01/10 09:48:03;;;;;;;20.48;4.90;;;6.50;99.90;;;;;;5046767;28;20044;-58
2023/01/10 09:51:08;;;;;;;24.13;4.55;;;6.40;99.90;;;;;;5045065;28;20175;-58
2023/01/10 09:53:38;;;;;;;31.30;4.38;;;6.60;99.90;;;;;;5043046;28;20039;-58
2023/01/10 09:56:06;;;;;;;27.90;4.30;;;6.60;99.90;;;;;;5044716;28;20495;-57
2023/01/10 09:58:33;;;;;;;22.38;4.32;;;6.50;99.90;;;;;;5028402;28;20082;-58
2023/01/10 10:01:14;;;;;;;36.00;5.22;;;6.40;99.90;;;;;;5026828;28;20112;-59
2023/01/10 10:03:45;;;;;;;25.05;4.32;;;6.60;99.90;;;;;;5046383;28;20048;-56
2023/01/10 10:06:12;;;;;;;24.02;4.32;;;6.60;99.90;;;;;;5044841;28;20688;-58
2023/01/10 10:08:43;;;;;;;22.13;4.00;;;6.80;99.90;;;;;;5047099;28;20475;-58
2023/01/10 10:11:24;;;;;;;25.77;4.63;;;6.80;99.90;;;;;;5042628;28;20489;-58
2023/01/10 10:14:26;;;;;;;25.27;4.55;;;6.90;99.90;;;;;;5046630;28;20036;-58
2023/01/10 10:17:16;;;;;;;28.52;4.95;;;6.90;99.90;;;;;;5044344;28;20041;-58
2023/01/10 10:20:13;;;;;;;31.95;5.30;;;7.10;99.90;;;;;;5042765;28;20037;-58
2023/01/10 10:22:51;;;;;;;22.90;4.72;;;7.00;99.90;;;;;;5044941;28;20484;-58
2023/01/10 10:25:28;;;;;;;23.38;5.03;;;6.90;99.90;;;;;;5045157;28;20025;-58
2023/01/10 10:28:08;;;;;;;24.15;4.47;;;7.00;99.90;;;;;;5042267;28;20701;-59
2023/01/10 10:31:03;;;;;;;23.13;4.30;;;7.00;99.90;;;;;;5044361;28;20238;-58
2023/01/10 10:33:50;;;;;;;21.90;4.07;;;6.90;99.90;;;;;;5043092;28;21307;-58
2023/01/10 10:36:27;;;;;;;24.25;4.75;;;7.00;99.90;;;;;;5045411;28;20488;-59
2023/01/10 10:38:57;;;;;;;16.05;4.05;;;7.10;99.90;;;;;;5045928;28;20040;-58
2023/01/10 10:41:25;;;;;;;29.05;4.22;;;7.30;99.90;;;;;;5044776;28;20044;-58
2023/01/10 10:43:53;;;;;;;31.13;5.18;;;7.30;99.90;;;;;;5046020;28;20110;-58
2023/01/10 10:46:19;;;;;;;26.20;4.53;;;7.20;99.90;;;;;;5046839;28;20037;-58
2023/01/10 10:49:03;;;;;;;30.17;5.20;;;7.20;99.90;;;;;;5046271;28;20167;-59
2023/01/10 10:51:38;;;;;;;23.42;4.47;;;7.30;99.90;;;;;;5043113;28;20025;-58
2023/01/10 10:54:05;;;;;;;37.38;4.78;;;7.30;99.90;;;;;;5044636;28;20045;-58
2023/01/10 10:56:31;;;;;;;19.25;4.00;;;7.40;99.90;;;;;;5043598;28;20040;-58
2023/01/10 10:58:59;;;;;;;26.23;4.05;;;7.40;99.90;;;;;;5043489;28;20038;-58
2023/01/10 11:01:25;;;;;;;18.58;4.30;;;7.50;99.90;;;;;;5044426;28;20171;-58
2023/01/10 11:03:57;;;;;;;22.58;4.35;;;7.60;99.90;;;;;;5043035;28;21063;-58
2023/01/10 11:06:28;;;;;;;24.75;4.88;;;7.50;99.90;;;;;;5043106;28;20041;-58
2023/01/10 11:08:57;;;;;;;20.98;3.97;;;7.50;99.90;;;;;;5042651;28;20032;-58
2023/01/10 11:11:31;;;;;;;21.45;4.25;;;7.50;99.90;;;;;;5021894;28;20041;-57
2023/01/10 11:13:59;;;;;;;23.40;4.15;;;7.60;99.90;;;;;;5038435;28;20123;-57
2023/01/10 11:16:30;;;;;;;23.27;4.68;;;7.60;99.90;;;;;;5045059;28;20802;-57
2023/01/10 11:19:19;;;;;;;21.38;3.97;;;7.60;99.90;;;;;;5043105;28;20047;-58
2023/01/10 11:21:59;;;;;;;22.17;4.65;;;7.60;99.90;;;;;;5042797;28;20531;-58
2023/01/10 11:24:58;;;;;;;19.48;3.92;;;7.60;99.90;;;;;;5043192;28;20045;-58
2023/01/10 11:27:28;;;;;;;28.58;4.75;;;7.70;99.90;;;;;;4997786;28;20592;-57
2023/01/10 11:30:07;;;;;;;27.17;4.55;;;7.70;99.90;;;;;;5045384;28;20037;-57
2023/01/10 11:32:51;;;;;;;16.50;3.72;;;7.70;99.90;;;;;;5042415;28;20366;-58
2023/01/10 11:35:34;;;;;;;25.17;4.05;;;7.70;99.90;;;;;;5042798;28;20110;-58
2023/01/10 11:38:28;;;;;;;12.40;2.38;;;7.80;99.90;;;;;;5042747;28;20384;-58
2023/01/10 11:40:54;;;;;;;;;;;7.80;99.90;;;;;;5040435;28;20556;-58
2023/01/10 11:43:36;;;;;;;17.23;3.38;;;8.00;99.90;;;;;;5044310;28;19921;-58
2023/01/10 11:51:14;;;;;;;18.42;3.50;;;8.00;99.90;;;;;;5005726;28;20087;-56
2023/01/10 11:53:42;;;;;;;25.75;3.60;;;8.00;99.90;;;;;;5021116;28;20041;-57
2023/01/10 11:56:11;;;;;;;23.75;3.97;;;8.00;99.90;;;;;;5022122;28;20033;-55
2023/01/10 11:58:38;;;;;;;24.85;3.85;;;8.00;99.90;;;;;;5017921;28;20038;-57
2023/01/10 12:01:04;;;;;;;20.52;3.75;;;8.00;99.90;;;;;;5022013;28;20037;-58
2023/01/10 12:03:35;;;;;;;22.92;3.95;;;8.00;99.90;;;;;;5018176;28;20041;-57
2023/01/10 12:06:16;;;;;;;20.52;3.88;;;8.00;99.90;;;;;;5023107;28;20253;-56
2023/01/10 12:08:43;;;;;;;19.85;3.63;;;8.00;99.90;;;;;;5019744;28;20047;-57
2023/01/10 12:11:31;;;;;;;20.77;3.28;;;8.10;99.90;;;;;;5022852;28;20309;-57
2023/01/10 12:14:00;;;;;;;22.63;3.95;;;8.10;99.90;;;;;;5024811;28;20127;-57
2023/01/10 12:16:28;;;;;;;21.38;3.67;;;8.10;99.90;;;;;;5024402;28;20471;-55
2023/01/10 12:18:59;;;;;;;17.52;4.20;;;8.10;99.90;;;;;;5022240;28;20037;-57
2023/01/10 12:21:40;;;;;;;15.85;3.38;;;8.20;99.90;;;;;;5022338;28;20037;-57
2023/01/10 12:24:17;;;;;;;19.88;3.47;;;8.30;99.90;;;;;;5021047;28;20049;-57
2023/01/10 12:26:44;;;;;;;22.60;3.40;;;8.30;99.90;;;;;;5024465;28;20504;-57
2023/01/10 12:29:18;;;;;;;20.63;4.00;;;8.20;99.90;;;;;;5022748;28;20029;-55
2023/01/10 12:31:44;;;;;;;22.55;4.32;;;8.30;99.90;;;;;;5023681;28;20034;-56
2023/01/10 12:34:22;;;;;;;20.42;3.65;;;8.30;99.90;;;;;;5021142;28;20045;-57
2023/01/10 12:37:02;;;;;;;19.30;4.18;;;8.20;99.90;;;;;;5023812;28;20073;-56
2023/01/10 12:39:34;;;;;;;20.63;3.72;;;8.30;99.90;;;;;;5003059;28;20042;-56
2023/01/10 12:45:15;;;;;;;16.55;3.83;;;8.30;99.90;;;;;;4994864;28;20048;-58
2023/01/10 12:47:55;;;;;;;22.90;3.25;;;8.30;99.90;;;;;;5025246;28;20385;-56
2023/01/10 12:50:29;;;;;;;23.58;3.95;;;8.20;99.90;;;;;;5025107;28;20037;-57
2023/01/10 12:53:21;;;;;;;24.63;4.30;;;8.30;99.90;;;;;;5030788;28;20442;-56
2023/01/10 12:55:47;;;;;;;20.75;3.92;;;8.40;99.90;;;;;;5026997;28;20034;-57
2023/01/10 12:58:21;;;;;;;24.27;4.43;;;8.40;99.90;;;;;;5027882;28;20026;-56
2023/01/10 13:00:54;;;;;;;21.08;4.00;;;8.40;99.90;;;;;;5028223;28;20117;-56
2023/01/10 13:03:23;;;;;;;17.75;3.33;;;8.40;99.90;;;;;;5027059;28;20524;-57
2023/01/10 13:05:50;;;;;;;22.50;4.47;;;8.40;99.90;;;;;;5030780;28;20554;-56
2023/01/10 13:08:21;;;;;;;20.88;3.70;;;8.40;99.90;;;;;;5029915;28;20044;-57
2023/01/10 13:10:51;;;;;;;17.92;3.92;;;8.40;99.90;;;;;;5029686;28;20484;-58
2023/01/10 13:13:34;;;;;;;16.98;3.83;;;8.50;99.90;;;;;;5027474;28;20037;-57
2023/01/10 13:16:16;;;;;;;23.00;3.85;;;8.40;99.90;;;;;;5029969;28;20061;-57
2023/01/10 13:19:02;;;;;;;20.35;2.90;;;8.40;99.90;;;;;;5015858;28;20080;-56
2023/01/10 13:21:30;;;;;;;19.80;3.65;;;8.40;99.90;;;;;;5028207;28;20071;-55